Time;durP1;ratioP1;P1;durP2;ratioP2;P2;SDS_P1;SDS_P2;PMS_P1;PMS_P2;Temp;Humidity;BMP_temperature;BMP_pressure;BME280_temperature;BME280_humidity;BME280_pressure;Samples;Min_cycle;Max_cycle;Signal;HPM_P1;HPM_P2
2023/01/02 00:01:09;;;;;;;31.98;20.08;;;10.40;99.90;;;;;;5008776;28;20557;-67
2023/01/02 00:03:35;;;;;;;26.88;19.27;;;10.40;99.90;;;;;;5002094;28;20038;-67
2023/01/02 00:06:04;;;;;;;32.67;20.88;;;10.40;99.90;;;;;;5002862;28;20121;-67
2023/01/02 00:08:30;;;;;;;34.28;21.17;;;10.40;99.90;;;;;;5007037;28;20406;-67
2023/01/02 00:10:56;;;;;;;36.80;21.95;;;10.40;99.90;;;;;;5008587;28;20034;-67
2023/01/02 00:13:22;;;;;;;28.05;20.45;;;10.40;99.90;;;;;;5008057;28;20092;-67
2023/01/02 00:15:50;;;;;;;32.10;20.95;;;10.40;99.90;;;;;;5008607;28;20050;-67
2023/01/02 00:18:15;;;;;;;26.52;18.80;;;10.50;99.90;;;;;;5003678;28;20038;-67
2023/01/02 00:20:42;;;;;;;29.67;20.77;;;10.40;99.90;;;;;;5008312;28;20034;-67
2023/01/02 00:23:09;;;;;;;32.53;21.92;;;10.40;99.90;;;;;;5007877;28;20586;-67
2023/01/02 00:25:34;;;;;;;29.60;19.50;;;10.40;99.90;;;;;;5007837;28;20491;-67
2023/01/02 00:28:01;;;;;;;32.47;23.55;;;10.50;99.90;;;;;;5008182;28;20042;-67
2023/01/02 00:30:26;;;;;;;33.22;20.65;;;10.40;99.90;;;;;;5008211;28;20042;-68
2023/01/02 00:32:52;;;;;;;36.88;22.10;;;10.40;99.90;;;;;;4990300;28;20048;-68
2023/01/02 00:35:18;;;;;;;40.30;25.52;;;10.50;99.90;;;;;;5006902;28;20229;-67
2023/01/02 00:37:43;;;;;;;36.33;25.23;;;10.50;99.90;;;;;;5007412;28;20080;-68
2023/01/02 00:40:12;;;;;;;32.70;23.90;;;10.40;99.90;;;;;;5006879;28;20054;-68
2023/01/02 00:42:41;;;;;;;39.55;24.58;;;10.40;99.90;;;;;;4989942;28;20076;-67
2023/01/02 00:45:08;;;;;;;38.58;25.30;;;10.50;99.90;;;;;;4976700;28;20081;-67
2023/01/02 00:47:35;;;;;;;36.75;24.70;;;10.50;99.90;;;;;;5007386;28;20179;-68
2023/01/02 00:50:01;;;;;;;39.55;26.40;;;10.50;99.90;;;;;;5007826;28;20050;-68
2023/01/02 00:52:27;;;;;;;34.80;25.27;;;10.50;99.90;;;;;;5006514;28;20056;-68
2023/01/02 00:54:52;;;;;;;39.13;26.65;;;10.50;99.90;;;;;;5006018;28;20046;-68
2023/01/02 00:57:18;;;;;;;43.95;27.70;;;10.50;99.90;;;;;;5006913;28;20050;-68
2023/01/02 00:59:44;;;;;;;42.90;30.48;;;10.50;99.90;;;;;;4990470;28;20045;-68
2023/01/02 01:02:10;;;;;;;45.97;27.88;;;10.60;99.90;;;;;;5006872;28;20049;-68
2023/01/02 01:04:36;;;;;;;48.50;27.83;;;10.60;99.90;;;;;;5007628;28;20148;-68
2023/01/02 01:07:02;;;;;;;42.45;30.05;;;10.60;99.90;;;;;;5007669;28;20077;-67
2023/01/02 01:09:28;;;;;;;50.70;30.88;;;10.60;99.90;;;;;;5003064;28;20038;-66
2023/01/02 01:11:54;;;;;;;53.25;30.08;;;10.60;99.90;;;;;;5007282;28;20074;-68
2023/01/02 01:14:20;;;;;;;48.22;29.95;;;10.60;99.90;;;;;;4967723;28;20089;-68
2023/01/02 01:16:45;;;;;;;45.38;29.58;;;10.60;99.90;;;;;;5007321;28;20128;-67
2023/01/02 01:19:11;;;;;;;48.92;29.92;;;10.60;99.90;;;;;;5007428;28;20152;-68
2023/01/02 01:21:37;;;;;;;44.05;27.67;;;10.60;99.90;;;;;;5006965;28;20056;-67
2023/01/02 01:24:02;;;;;;;43.78;29.02;;;10.70;99.90;;;;;;5006805;28;20046;-68
2023/01/02 01:26:28;;;;;;;47.28;28.35;;;10.70;99.90;;;;;;5006793;28;20049;-68
2023/01/02 01:28:55;;;;;;;46.53;30.33;;;10.70;99.90;;;;;;5007108;28;20058;-67
2023/01/02 01:31:22;;;;;;;44.40;28.13;;;10.70;99.90;;;;;;5006723;28;20483;-68
2023/01/02 01:33:49;;;;;;;46.95;29.30;;;10.70;99.90;;;;;;5006934;28;20116;-67
2023/01/02 01:36:24;;;;;;;45.78;29.50;;;10.70;99.90;;;;;;5006906;28;20076;-67
2023/01/02 01:38:50;;;;;;;43.25;28.00;;;10.70;99.90;;;;;;5007030;28;20045;-68
2023/01/02 01:41:19;;;;;;;49.22;30.20;;;10.70;99.90;;;;;;4988548;28;20061;-68
2023/01/02 01:43:49;;;;;;;49.08;29.98;;;10.70;99.90;;;;;;5006596;28;20045;-68
2023/01/02 01:46:31;;;;;;;38.75;26.77;;;10.70;99.90;;;;;;4984337;28;20463;-68
2023/01/02 01:49:03;;;;;;;42.60;29.52;;;10.80;99.90;;;;;;5010765;28;20046;-67
2023/01/02 01:51:31;;;;;;;40.83;26.80;;;10.80;99.90;;;;;;5010686;28;20080;-67
2023/01/02 01:54:14;;;;;;;43.90;26.60;;;10.80;99.90;;;;;;5007951;28;20541;-68
2023/01/02 01:56:46;;;;;;;39.22;25.88;;;10.80;99.90;;;;;;5011187;28;20076;-68
2023/01/02 01:59:12;;;;;;;40.60;25.45;;;10.80;99.90;;;;;;5010584;28;20057;-68
2023/01/02 02:01:40;;;;;;;37.83;26.42;;;10.80;99.90;;;;;;5006708;28;20490;-68
2023/01/02 02:04:08;;;;;;;40.35;25.80;;;10.80;99.90;;;;;;5009288;28;20060;-68
2023/01/02 02:06:34;;;;;;;49.25;26.77;;;10.80;99.90;;;;;;5010631;28;20042;-68
2023/01/02 02:09:05;;;;;;;43.95;25.00;;;10.80;99.90;;;;;;4992612;28;20487;-68
2023/01/02 02:11:31;;;;;;;38.42;24.45;;;10.80;99.90;;;;;;5011148;28;20041;-68
2023/01/02 02:14:00;;;;;;;42.13;25.50;;;10.80;99.90;;;;;;5010175;28;20096;-68
2023/01/02 02:16:37;;;;;;;38.08;23.90;;;10.80;99.90;;;;;;5001504;28;20566;-68
2023/01/02 02:19:15;;;;;;;53.10;27.23;;;10.80;99.90;;;;;;4988313;28;20102;-68
2023/01/02 02:21:46;;;;;;;41.35;25.80;;;10.80;99.90;;;;;;5010643;28;20049;-68
2023/01/02 02:24:36;;;;;;;42.38;25.17;;;10.80;99.90;;;;;;4997553;28;20064;-68
2023/01/02 02:27:29;;;;;;;42.47;23.83;;;10.90;99.90;;;;;;5009037;28;20049;-68
2023/01/02 02:30:01;;;;;;;44.47;24.15;;;10.90;99.90;;;;;;4999415;28;20054;-68
2023/01/02 02:32:35;;;;;;;38.00;23.08;;;10.90;99.90;;;;;;5007951;28;20053;-68
2023/01/02 02:35:16;;;;;;;39.08;21.58;;;10.90;99.90;;;;;;5009231;28;20096;-68
2023/01/02 02:38:14;;;;;;;38.83;22.70;;;10.90;99.90;;;;;;5009987;28;20050;-68
2023/01/02 02:41:03;;;;;;;34.75;21.98;;;10.90;99.90;;;;;;4986319;28;20470;-67
2023/01/02 02:44:00;;;;;;;40.65;21.40;;;10.90;99.90;;;;;;4983837;28;20053;-68
2023/01/02 02:46:53;;;;;;;34.00;20.80;;;10.90;99.90;;;;;;5009793;28;20042;-68
2023/01/02 02:49:46;;;;;;;37.20;22.63;;;10.90;99.90;;;;;;4993406;28;20419;-68
2023/01/02 02:52:33;;;;;;;31.33;19.60;;;10.90;99.90;;;;;;4993032;28;20245;-68
2023/01/02 02:55:11;;;;;;;31.05;18.65;;;10.90;99.90;;;;;;5008902;28;20046;-68
2023/01/02 02:57:39;;;;;;;30.02;20.13;;;10.90;99.90;;;;;;5009408;28;20073;-68
2023/01/02 03:00:07;;;;;;;30.53;20.27;;;10.90;99.90;;;;;;4991951;28;20096;-67
2023/01/02 03:02:33;;;;;;;35.70;21.48;;;11.00;99.90;;;;;;5009386;28;20300;-68
2023/01/02 03:05:04;;;;;;;35.45;20.15;;;10.90;99.90;;;;;;4992234;28;20048;-68
2023/01/02 03:07:36;;;;;;;32.72;20.17;;;11.00;99.90;;;;;;5008571;28;20092;-68
2023/01/02 03:10:04;;;;;;;30.48;19.50;;;10.90;99.90;;;;;;5008900;28;20490;-68
2023/01/02 03:12:39;;;;;;;38.63;20.15;;;10.90;99.90;;;;;;4999346;28;20125;-67
2023/01/02 03:15:27;;;;;;;34.90;20.90;;;11.00;99.90;;;;;;5006388;28;20085;-69
2023/01/02 03:18:11;;;;;;;;;;;11.00;99.90;;;;;;5009592;28;20546;-67
2023/01/02 03:20:43;;;;;;;32.35;17.73;;;11.00;99.90;;;;;;4997462;28;19925;-68
2023/01/02 03:23:18;;;;;;;32.55;18.45;;;11.00;99.90;;;;;;4991210;28;20072;-68
2023/01/02 03:25:45;;;;;;;34.67;20.15;;;11.00;99.90;;;;;;5006285;28;20071;-68
2023/01/02 03:28:15;;;;;;;37.65;18.92;;;11.00;99.90;;;;;;5009545;28;20077;-68
2023/01/02 03:30:46;;;;;;;31.75;21.05;;;11.00;99.90;;;;;;4994263;28;20419;-68
2023/01/02 03:33:17;;;;;;;33.38;19.77;;;11.00;99.90;;;;;;4997164;28;20670;-68
2023/01/02 03:35:51;;;;;;;32.42;18.08;;;11.00;99.90;;;;;;5008505;28;20438;-68
2023/01/02 03:38:35;;;;;;;35.50;18.58;;;11.00;99.90;;;;;;5009029;28;20483;-68
2023/01/02 03:41:20;;;;;;;34.08;18.67;;;11.00;99.90;;;;;;5002016;28;20056;-68
2023/01/02 03:43:48;;;;;;;33.45;19.30;;;11.00;99.90;;;;;;5008637;28;20045;-68
2023/01/02 03:46:37;;;;;;;28.05;18.08;;;11.00;99.90;;;;;;5001152;28;20043;-68
2023/01/02 03:49:05;;;;;;;33.50;18.30;;;11.00;99.90;;;;;;4996743;28;20515;-68
2023/01/02 03:51:31;;;;;;;31.58;15.65;;;11.00;99.90;;;;;;5008567;28;20136;-67
2023/01/02 03:53:58;;;;;;;30.70;19.00;;;11.00;99.90;;;;;;4991035;28;20100;-68
2023/01/02 03:56:45;;;;;;;28.30;16.67;;;11.00;99.90;;;;;;5008322;28;20308;-68
2023/01/02 03:59:27;;;;;;;36.97;18.67;;;11.00;99.90;;;;;;4990414;28;20065;-68
2023/01/02 04:02:14;;;;;;;31.35;16.67;;;11.00;99.90;;;;;;4997098;28;20045;-67
2023/01/02 04:04:45;;;;;;;27.38;17.35;;;11.00;99.90;;;;;;5007764;28;20061;-67
2023/01/02 04:07:17;;;;;;;32.25;17.90;;;11.00;99.90;;;;;;5008079;28;20057;-68
2023/01/02 04:09:45;;;;;;;24.77;17.75;;;11.00;99.90;;;;;;5007215;28;20048;-68
2023/01/02 04:12:15;;;;;;;38.05;18.30;;;11.00;99.90;;;;;;4998150;28;20062;-68
2023/01/02 04:14:45;;;;;;;26.17;17.42;;;11.00;99.90;;;;;;5007618;28;20054;-68
2023/01/02 04:17:14;;;;;;;28.17;17.25;;;11.10;99.90;;;;;;5008057;28;20088;-68
2023/01/02 04:19:54;;;;;;;28.23;16.75;;;11.00;99.90;;;;;;5008368;28;20068;-67
2023/01/02 04:22:25;;;;;;;31.83;18.50;;;11.10;99.90;;;;;;5006156;28;20498;-68
2023/01/02 04:25:05;;;;;;;28.15;17.70;;;11.10;99.90;;;;;;5007736;28;20100;-68
2023/01/02 04:27:38;;;;;;;43.67;17.00;;;11.10;99.90;;;;;;5007457;28;20507;-68
2023/01/02 04:30:04;;;;;;;29.90;16.63;;;11.10;99.90;;;;;;4999538;28;20088;-69
2023/01/02 04:32:44;;;;;;;27.77;15.95;;;11.10;99.90;;;;;;5005035;28;20049;-69
2023/01/02 04:35:19;;;;;;;23.10;16.17;;;11.20;99.90;;;;;;4971063;28;20066;-69
2023/01/02 04:37:45;;;;;;;22.83;16.42;;;11.20;99.90;;;;;;4997047;28;20050;-69
2023/01/02 04:40:18;;;;;;;26.55;16.88;;;11.20;99.90;;;;;;5007068;28;20141;-69
2023/01/02 04:42:44;;;;;;;24.92;15.02;;;11.20;99.90;;;;;;4982560;28;20042;-68
2023/01/02 04:45:11;;;;;;;22.17;14.65;;;11.20;99.90;;;;;;5007852;28;20080;-69
2023/01/02 04:47:36;;;;;;;30.55;15.52;;;11.20;99.90;;;;;;5008287;28;20054;-69
2023/01/02 04:50:03;;;;;;;26.20;15.30;;;11.20;99.90;;;;;;5007600;28;20418;-69
2023/01/02 04:52:29;;;;;;;33.13;15.85;;;11.20;99.90;;;;;;4989538;28;20446;-68
2023/01/02 04:54:55;;;;;;;30.80;15.80;;;11.30;99.90;;;;;;5005919;28;20049;-69
2023/01/02 04:57:20;;;;;;;24.67;15.52;;;11.30;99.90;;;;;;5000991;28;20042;-68
2023/01/02 04:59:46;;;;;;;22.95;15.13;;;11.30;99.90;;;;;;4999555;28;20173;-69
2023/01/02 05:02:12;;;;;;;35.17;15.93;;;11.30;99.90;;;;;;5000293;28;20441;-69
2023/01/02 05:04:37;;;;;;;25.85;15.73;;;11.30;99.90;;;;;;5005170;28;20048;-68
2023/01/02 05:07:03;;;;;;;24.85;14.90;;;11.30;99.90;;;;;;4975772;28;20645;-68
2023/01/02 05:09:29;;;;;;;22.33;14.88;;;11.30;99.90;;;;;;5004439;28;20531;-68
2023/01/02 05:11:54;;;;;;;23.75;15.77;;;11.30;99.90;;;;;;5005489;28;20049;-68
2023/01/02 05:14:20;;;;;;;25.08;14.50;;;11.30;99.90;;;;;;4989834;28;20046;-68
2023/01/02 05:16:45;;;;;;;19.38;13.95;;;11.40;99.90;;;;;;5006344;28;20208;-68
2023/01/02 05:19:11;;;;;;;22.88;14.23;;;11.40;99.90;;;;;;5007576;28;20077;-69
2023/01/02 05:24:21;;;;;;;25.30;13.57;;;11.40;99.90;;;;;;5006700;28;20054;-68
2023/01/02 05:26:47;;;;;;;27.35;13.55;;;11.30;99.90;;;;;;5003925;28;20096;-68
2023/01/02 05:29:12;;;;;;;26.15;12.98;;;11.40;99.90;;;;;;5006876;28;20092;-68
2023/01/02 05:31:38;;;;;;;25.48;13.65;;;11.40;99.90;;;;;;5006298;28;20484;-68
2023/01/02 05:34:04;;;;;;;30.52;14.52;;;11.50;99.90;;;;;;4994230;28;20499;-68
2023/01/02 05:36:29;;;;;;;27.42;13.85;;;11.40;99.90;;;;;;5004992;28;20146;-68
2023/01/02 05:38:55;;;;;;;23.83;14.95;;;11.50;99.90;;;;;;5001453;28;20038;-68
2023/01/02 05:41:22;;;;;;;25.27;14.38;;;11.40;99.90;;;;;;5006495;28;20096;-68
2023/01/02 05:43:48;;;;;;;24.17;12.77;;;11.50;99.90;;;;;;4988982;28;20093;-68
2023/01/02 05:46:18;;;;;;;35.58;15.68;;;11.50;99.90;;;;;;5005799;28;20042;-68
2023/01/02 05:48:44;;;;;;;33.97;14.27;;;11.50;99.90;;;;;;5005490;28;20066;-68
2023/01/02 05:51:13;;;;;;;24.33;13.55;;;11.50;99.90;;;;;;5007150;28;20045;-68
2023/01/02 05:53:39;;;;;;;22.95;12.70;;;11.50;99.90;;;;;;5006728;28;20494;-68
2023/01/02 05:56:08;;;;;;;22.77;14.35;;;11.50;99.90;;;;;;5007031;28;20046;-68
2023/01/02 05:58:36;;;;;;;21.05;13.15;;;11.50;99.90;;;;;;4997611;28;20120;-68
2023/01/02 06:01:16;;;;;;;22.63;14.02;;;11.50;99.90;;;;;;4989000;28;20497;-69
2023/01/02 06:03:49;;;;;;;29.45;15.00;;;11.50;99.90;;;;;;5007511;28;20104;-69
2023/01/02 06:06:17;;;;;;;23.88;13.18;;;11.60;99.90;;;;;;4989751;28;20100;-68
2023/01/02 06:08:42;;;;;;;29.30;13.68;;;11.50;99.90;;;;;;4999414;28;20037;-68
2023/01/02 06:11:08;;;;;;;27.38;14.25;;;11.60;99.90;;;;;;5006812;28;20740;-68
2023/01/02 06:13:36;;;;;;;35.20;15.38;;;11.60;99.90;;;;;;5005826;28;20096;-68
2023/01/02 06:16:03;;;;;;;33.03;14.30;;;11.50;99.90;;;;;;4998248;28;20122;-68
2023/01/02 06:18:30;;;;;;;20.90;13.15;;;11.50;99.90;;;;;;4991229;28;20164;-68
2023/01/02 06:21:11;;;;;;;26.90;14.45;;;11.50;99.90;;;;;;5006827;28;20045;-69
2023/01/02 06:23:37;;;;;;;27.52;13.65;;;11.60;99.90;;;;;;5007142;28;20041;-68
2023/01/02 06:26:21;;;;;;;24.77;12.25;;;11.60;99.90;;;;;;5006912;28;20038;-68
2023/01/02 06:28:53;;;;;;;20.15;12.25;;;11.60;99.90;;;;;;4989069;28;20042;-68
2023/01/02 06:31:21;;;;;;;27.55;12.82;;;11.60;99.90;;;;;;4998373;28;20571;-69
2023/01/02 06:33:47;;;;;;;20.48;12.80;;;11.60;99.90;;;;;;5007286;28;20152;-68
2023/01/02 06:36:17;;;;;;;25.58;12.55;;;11.70;99.90;;;;;;4992143;28;20141;-68
2023/01/02 06:38:45;;;;;;;16.00;12.55;;;11.60;99.90;;;;;;5010354;28;20042;-68
2023/01/02 06:41:12;;;;;;;31.15;12.57;;;11.60;99.90;;;;;;5009984;28;20050;-69
2023/01/02 06:43:46;;;;;;;17.58;13.02;;;11.70;99.90;;;;;;5009795;28;20050;-68
2023/01/02 06:46:14;;;;;;;23.70;11.88;;;11.70;99.90;;;;;;5009117;28;20050;-68
2023/01/02 06:48:40;;;;;;;26.15;12.90;;;11.70;99.90;;;;;;5008960;28;20053;-68
2023/01/02 06:51:08;;;;;;;28.75;13.43;;;11.60;99.90;;;;;;5009768;28;20050;-68
2023/01/02 06:53:35;;;;;;;18.23;11.35;;;11.60;99.90;;;;;;4973107;28;20088;-68
2023/01/02 06:56:02;;;;;;;23.13;12.70;;;11.60;99.90;;;;;;4983279;28;20062;-68
2023/01/02 06:58:30;;;;;;;24.13;12.85;;;11.60;99.90;;;;;;5009622;28;20088;-68
2023/01/02 07:01:02;;;;;;;26.53;13.13;;;11.60;99.90;;;;;;5005033;28;20417;-68
2023/01/02 07:03:27;;;;;;;19.27;11.75;;;11.60;99.90;;;;;;5010382;28;20293;-67
2023/01/02 07:05:53;;;;;;;17.48;11.50;;;11.60;99.90;;;;;;5004320;28;20058;-68
2023/01/02 07:08:18;;;;;;;18.73;11.05;;;11.60;99.90;;;;;;4995632;28;20511;-68
2023/01/02 07:10:44;;;;;;;17.33;12.20;;;11.60;99.90;;;;;;5007762;28;20046;-68
2023/01/02 07:13:10;;;;;;;17.77;11.52;;;11.70;99.90;;;;;;5009425;28;20782;-68
2023/01/02 07:15:35;;;;;;;23.58;11.48;;;11.60;99.90;;;;;;5009088;28;20049;-68
2023/01/02 07:18:01;;;;;;;17.17;12.52;;;11.70;99.90;;;;;;5009115;28;20045;-68
2023/01/02 07:20:27;;;;;;;34.03;13.38;;;11.70;99.90;;;;;;5006577;28;20042;-67
2023/01/02 07:22:53;;;;;;;22.42;11.27;;;11.70;99.90;;;;;;5004458;28;20083;-68
2023/01/02 07:25:20;;;;;;;15.15;11.27;;;11.70;99.90;;;;;;5007513;28;20509;-68
2023/01/02 07:27:46;;;;;;;23.30;10.57;;;11.70;99.90;;;;;;4990595;28;20053;-68
2023/01/02 07:30:12;;;;;;;15.75;10.18;;;11.70;99.90;;;;;;5007705;28;20038;-68
2023/01/02 07:32:38;;;;;;;16.98;10.82;;;11.70;99.90;;;;;;5009132;28;20046;-68
2023/01/02 07:35:05;;;;;;;16.95;12.27;;;11.70;99.90;;;;;;5008912;28;20406;-68
2023/01/02 07:37:31;;;;;;;10.77;9.43;;;11.70;99.90;;;;;;5008188;28;20057;-69
2023/01/02 07:39:56;;;;;;;11.02;7.32;;;11.60;99.90;;;;;;5005918;28;20049;-68
2023/01/02 07:42:22;;;;;;;10.43;5.30;;;11.60;99.90;;;;;;4990660;28;20402;-68
2023/01/02 07:44:47;;;;;;;3.60;3.30;;;11.50;99.90;;;;;;5004136;28;20041;-68
2023/01/02 07:47:13;;;;;;;3.08;2.75;;;11.40;99.90;;;;;;5004031;28;20122;-67
2023/01/02 07:49:39;;;;;;;5.03;3.28;;;11.30;99.90;;;;;;5008149;28;20044;-67
2023/01/02 07:52:09;;;;;;;2.60;2.40;;;11.20;99.90;;;;;;5007714;28;20081;-68
2023/01/02 07:54:35;;;;;;;2.60;2.17;;;11.20;99.90;;;;;;5007519;28;20526;-68
2023/01/02 07:57:00;;;;;;;2.65;2.45;;;11.00;99.90;;;;;;5006406;28;20038;-67
2023/01/02 07:59:27;;;;;;;2.88;2.67;;;11.00;99.90;;;;;;5005512;28;20049;-67
2023/01/02 08:01:52;;;;;;;4.45;4.07;;;10.90;99.90;;;;;;5008166;28;20045;-67
2023/01/02 08:04:18;;;;;;;4.57;4.13;;;10.80;99.90;;;;;;5006491;28;20266;-68
2023/01/02 08:06:44;;;;;;;4.75;4.30;;;10.80;99.90;;;;;;5006608;28;20042;-68
2023/01/02 08:09:09;;;;;;;5.13;4.63;;;10.80;99.90;;;;;;5007916;28;20046;-68
2023/01/02 08:11:36;;;;;;;6.30;5.68;;;10.70;99.90;;;;;;5003321;28;20116;-68
2023/01/02 08:14:02;;;;;;;5.97;5.35;;;10.70;99.90;;;;;;4986399;28;20058;-68
2023/01/02 08:16:29;;;;;;;6.72;6.10;;;10.60;99.90;;;;;;5001494;28;20046;-67
2023/01/02 08:18:55;;;;;;;8.93;7.18;;;10.60;99.90;;;;;;5004513;28;20057;-67
2023/01/02 08:21:22;;;;;;;9.48;6.70;;;10.60;99.90;;;;;;4984070;28;20042;-67
2023/01/02 08:23:48;;;;;;;7.47;6.05;;;10.50;99.90;;;;;;4980080;28;20081;-67
2023/01/02 08:26:13;;;;;;;7.15;5.88;;;10.40;99.90;;;;;;5007223;28;20076;-68
2023/01/02 08:28:40;;;;;;;6.70;5.75;;;10.40;99.90;;;;;;5005243;28;20038;-68
2023/01/02 08:31:22;;;;;;;10.57;5.70;;;10.30;99.90;;;;;;5012477;28;20403;-67
2023/01/02 08:33:48;;;;;;;6.63;5.70;;;10.30;99.90;;;;;;5007095;28;20056;-68
2023/01/02 08:36:14;;;;;;;7.80;5.43;;;10.20;99.90;;;;;;5007453;28;20578;-68
2023/01/02 08:38:39;;;;;;;5.82;4.78;;;10.20;99.90;;;;;;5007302;28;20122;-68
2023/01/02 08:41:05;;;;;;;7.95;4.85;;;10.10;99.90;;;;;;5007436;28;20545;-68
2023/01/02 08:43:35;;;;;;;7.45;4.72;;;10.00;99.90;;;;;;5007008;28;20077;-67
2023/01/02 08:46:08;;;;;;;5.03;4.03;;;10.00;99.90;;;;;;5001233;28;20041;-68
2023/01/02 08:48:34;;;;;;;8.93;4.63;;;9.90;99.90;;;;;;5002759;28;20037;-68
2023/01/02 08:51:02;;;;;;;4.55;3.33;;;9.90;99.90;;;;;;5003957;28;20443;-68
2023/01/02 08:53:27;;;;;;;3.20;2.88;;;9.80;99.90;;;;;;4981145;28;20116;-68
2023/01/02 08:55:53;;;;;;;4.68;2.60;;;9.80;99.90;;;;;;5003643;28;20503;-68
2023/01/02 08:58:19;;;;;;;3.60;2.45;;;9.80;99.90;;;;;;5002241;28;20050;-68
2023/01/02 09:00:44;;;;;;;3.78;2.25;;;9.80;99.90;;;;;;5001025;28;20049;-68
2023/01/02 09:03:10;;;;;;;3.03;1.83;;;9.70;99.90;;;;;;4975850;28;20115;-68
2023/01/02 09:05:36;;;;;;;3.80;2.10;;;9.60;99.90;;;;;;4981389;28;20399;-68
2023/01/02 09:08:02;;;;;;;3.85;1.60;;;9.60;99.90;;;;;;5006793;28;20046;-67
2023/01/02 09:10:27;;;;;;;1.55;1.45;;;9.50;99.90;;;;;;5008444;28;20494;-68
2023/01/02 09:12:53;;;;;;;2.30;1.40;;;9.50;99.90;;;;;;5010937;28;20073;-69
2023/01/02 09:15:19;;;;;;;2.13;1.48;;;9.50;99.90;;;;;;4997598;28;20057;-69
2023/01/02 09:17:44;;;;;;;4.32;2.25;;;9.40;99.90;;;;;;5006483;28;20042;-69
2023/01/02 09:20:10;;;;;;;2.92;1.90;;;9.40;99.90;;;;;;5006648;28;20538;-70
2023/01/02 09:22:36;;;;;;;5.13;2.75;;;9.30;99.90;;;;;;5006609;28;20046;-69
2023/01/02 09:25:02;;;;;;;3.60;2.42;;;9.30;99.90;;;;;;4986856;28;20495;-69
2023/01/02 09:27:27;;;;;;;5.47;2.03;;;9.30;99.90;;;;;;5006453;28;20438;-70
2023/01/02 09:29:53;;;;;;;5.00;2.17;;;9.30;99.90;;;;;;4977684;28;20566;-70
2023/01/02 09:32:19;;;;;;;4.10;2.42;;;9.30;99.90;;;;;;4992932;28;20125;-69
2023/01/02 09:34:49;;;;;;;2.85;2.40;;;9.30;99.90;;;;;;4995303;28;20046;-69
2023/01/02 09:37:16;;;;;;;4.20;2.40;;;9.30;99.90;;;;;;5005290;28;20054;-70
2023/01/02 09:39:42;;;;;;;8.32;3.22;;;9.20;99.90;;;;;;5006007;28;20042;-69
2023/01/02 09:42:13;;;;;;;2.85;2.63;;;9.20;99.90;;;;;;4984390;28;20375;-69
2023/01/02 09:44:44;;;;;;;3.08;2.17;;;9.20;99.90;;;;;;5005512;28;20490;-69
2023/01/02 09:47:13;;;;;;;4.35;2.63;;;9.20;99.90;;;;;;4989330;28;20153;-69
2023/01/02 09:49:48;;;;;;;5.13;3.85;;;9.20;99.90;;;;;;5002390;28;20050;-69
2023/01/02 09:52:22;;;;;;;3.95;2.92;;;9.20;99.90;;;;;;4968875;28;20060;-70
2023/01/02 09:54:47;;;;;;;6.15;2.20;;;9.20;99.90;;;;;;4989149;28;20126;-69
2023/01/02 09:57:21;;;;;;;5.20;3.20;;;9.20;99.90;;;;;;5006905;28;20125;-69
2023/01/02 10:00:05;;;;;;;4.32;2.75;;;9.20;99.90;;;;;;4988582;28;20417;-69
2023/01/02 10:02:54;;;;;;;4.00;2.90;;;9.20;99.90;;;;;;4989241;28;20050;-69
2023/01/02 10:05:56;;;;;;;3.80;2.58;;;9.30;99.90;;;;;;4983343;28;20057;-69
2023/01/02 10:08:25;;;;;;;2.88;2.53;;;9.30;99.90;;;;;;5005225;28;20045;-69
2023/01/02 10:11:15;;;;;;;3.70;1.95;;;9.20;99.90;;;;;;5010965;28;20443;-69
2023/01/02 10:13:52;;;;;;;5.72;2.90;;;9.30;99.90;;;;;;4997631;28;20057;-69
2023/01/02 10:16:24;;;;;;;3.40;2.37;;;9.30;99.90;;;;;;5008156;28;20077;-69
2023/01/02 10:18:53;;;;;;;2.25;2.05;;;9.30;99.90;;;;;;5008971;28;21020;-69
2023/01/02 10:21:32;;;;;;;3.13;2.58;;;9.30;99.90;;;;;;5010184;28;20054;-69
2023/01/02 10:24:03;;;;;;;4.40;3.13;;;9.30;99.90;;;;;;5011065;28;20125;-70
2023/01/02 10:26:36;;;;;;;4.68;3.20;;;9.30;99.90;;;;;;5010666;28;20045;-69
2023/01/02 10:29:09;;;;;;;5.35;3.45;;;9.40;99.90;;;;;;4992573;28;20054;-83
2023/01/02 10:32:01;;;;;;;2.97;2.67;;;9.40;99.90;;;;;;4993311;28;20050;-77
2023/01/02 10:34:39;;;;;;;3.95;3.55;;;9.40;99.90;;;;;;4994613;28;20990;-70
2023/01/02 10:37:12;;;;;;;3.85;3.17;;;9.50;99.90;;;;;;4991144;28;20068;-70
2023/01/02 10:39:40;;;;;;;5.25;3.33;;;9.50;99.90;;;;;;5009061;28;20600;-69
2023/01/02 10:42:08;;;;;;;4.70;3.13;;;9.60;99.90;;;;;;5008858;28;20176;-69
2023/01/02 10:44:37;;;;;;;12.75;3.55;;;9.60;99.90;;;;;;5007853;28;20785;-70
2023/01/02 10:47:38;;;;;;;5.20;3.28;;;9.70;99.90;;;;;;5000894;28;20065;-70
2023/01/02 10:50:06;;;;;;;9.02;2.88;;;9.60;99.90;;;;;;4990039;28;20062;-70
2023/01/02 10:52:36;;;;;;;3.83;2.80;;;9.60;99.90;;;;;;5007675;28;20545;-69
2023/01/02 10:55:03;;;;;;;8.57;4.13;;;9.60;99.90;;;;;;5008001;28;20521;-70
2023/01/02 10:57:45;;;;;;;4.80;3.00;;;9.60;99.90;;;;;;5009885;28;20112;-70
2023/01/02 11:00:16;;;;;;;2.28;1.92;;;9.60;99.90;;;;;;5005570;28;20086;-70
2023/01/02 11:02:48;;;;;;;6.13;2.95;;;9.60;99.90;;;;;;5003890;28;20046;-70
2023/01/02 11:05:23;;;;;;;4.53;2.92;;;9.60;99.90;;;;;;4987447;28;20052;-70
2023/01/02 11:07:50;;;;;;;8.00;3.75;;;9.60;99.90;;;;;;5007185;28;20403;-70
2023/01/02 11:10:35;;;;;;;4.57;3.20;;;9.60;99.90;;;;;;4999129;28;20046;-71
2023/01/02 11:13:09;;;;;;;4.28;3.40;;;9.60;99.90;;;;;;5006626;28;20149;-70
2023/01/02 11:15:46;;;;;;;4.43;3.85;;;9.60;99.90;;;;;;5005034;28;20414;-70
2023/01/02 11:18:21;;;;;;;5.13;2.65;;;9.70;99.90;;;;;;4991418;28;20066;-70
2023/01/02 11:20:50;;;;;;;3.00;2.60;;;9.70;99.90;;;;;;4996651;28;20050;-70
2023/01/02 11:23:18;;;;;;;3.90;3.00;;;9.70;99.90;;;;;;5008829;28;20046;-70
2023/01/02 11:25:46;;;;;;;5.05;2.95;;;9.70;99.90;;;;;;5009755;28;20053;-71
2023/01/02 11:28:22;;;;;;;4.15;2.67;;;9.70;99.90;;;;;;5008885;28;20053;-70
2023/01/02 11:30:53;;;;;;;7.13;3.05;;;9.80;99.90;;;;;;4991418;28;20483;-71
2023/01/02 11:33:33;;;;;;;7.43;3.42;;;9.80;99.90;;;;;;5008949;28;20120;-71
2023/01/02 11:36:02;;;;;;;5.75;3.72;;;9.80;99.90;;;;;;4984779;28;20077;-71
2023/01/02 11:38:44;;;;;;;5.63;3.58;;;9.80;99.90;;;;;;5010159;28;20116;-71
2023/01/02 11:44:43;;;;;;;9.18;4.70;;;9.80;99.90;;;;;;5009108;28;20522;-71
2023/01/02 11:47:11;;;;;;;7.43;4.13;;;9.80;99.90;;;;;;5002866;28;20077;-70
2023/01/02 11:49:41;;;;;;;6.75;4.10;;;9.80;99.90;;;;;;4986589;28;20580;-70
2023/01/02 11:52:17;;;;;;;8.18;3.38;;;9.70;99.90;;;;;;5000312;28;20039;-70
2023/01/02 11:55:03;;;;;;;10.05;4.10;;;9.80;99.90;;;;;;4991284;28;20069;-70
2023/01/02 11:57:59;;;;;;;12.77;4.90;;;9.80;99.90;;;;;;5007283;28;20081;-70
2023/01/02 12:00:31;;;;;;;7.15;3.60;;;9.80;99.90;;;;;;5003448;28;20068;-70
2023/01/02 12:03:19;;;;;;;10.02;4.13;;;9.70;99.90;;;;;;5009116;28;20511;-70
2023/01/02 12:06:01;;;;;;;6.13;3.80;;;9.70;99.90;;;;;;4990178;28;20149;-70
2023/01/02 12:09:17;;;;;;;6.75;3.70;;;9.70;99.90;;;;;;5008550;28;20057;-70
2023/01/02 12:12:08;;;;;;;8.43;3.47;;;9.70;99.90;;;;;;4944907;28;20499;-70
2023/01/02 12:14:52;;;;;;;5.90;3.90;;;9.70;99.90;;;;;;5007671;28;20054;-70
2023/01/02 12:17:50;;;;;;;6.05;3.30;;;9.70;99.90;;;;;;4989658;28;20046;-70
2023/01/02 12:20:21;;;;;;;9.73;4.10;;;9.70;99.90;;;;;;5000581;28;20681;-70
2023/01/02 12:23:13;;;;;;;5.07;3.08;;;9.70;99.90;;;;;;5008313;28;20136;-70
2023/01/02 12:25:57;;;;;;;11.70;4.13;;;9.70;99.90;;;;;;5008713;28;20120;-70
2023/01/02 12:28:25;;;;;;;15.20;3.97;;;9.70;99.90;;;;;;5008110;28;20752;-70
2023/01/02 12:31:02;;;;;;;8.88;3.97;;;9.70;99.90;;;;;;5006678;28;20567;-70
2023/01/02 12:34:06;;;;;;;4.93;3.70;;;9.70;99.90;;;;;;4989980;28;20077;-70
2023/01/02 12:36:52;;;;;;;7.43;3.47;;;9.60;99.90;;;;;;4988025;28;20149;-70
2023/01/02 12:39:33;;;;;;;7.28;3.58;;;9.60;99.90;;;;;;5008094;28;20050;-70
2023/01/02 12:42:22;;;;;;;4.38;3.05;;;9.60;99.90;;;;;;5006114;28;20054;-70
2023/01/02 12:44:53;;;;;;;7.47;4.80;;;9.60;99.90;;;;;;4956628;28;20164;-70
2023/01/02 12:47:26;;;;;;;9.35;4.78;;;9.60;99.90;;;;;;5004850;28;20491;-70
2023/01/02 12:50:04;;;;;;;9.70;3.90;;;9.60;99.90;;;;;;5000805;28;20046;-70
2023/01/02 12:53:04;;;;;;;7.03;4.07;;;9.60;99.90;;;;;;4999315;28;20076;-70
2023/01/02 12:55:47;;;;;;;13.30;4.80;;;9.70;99.90;;;;;;5000310;28;20098;-70
2023/01/02 12:58:28;;;;;;;10.27;5.43;;;9.60;99.90;;;;;;4983568;28;20109;-70
2023/01/02 13:00:58;;;;;;;13.40;5.70;;;9.60;99.90;;;;;;4987052;28;20097;-70
2023/01/02 13:03:52;;;;;;;10.32;4.88;;;9.60;99.90;;;;;;5005790;28;20041;-70
2023/01/02 13:06:25;;;;;;;6.32;4.28;;;9.60;99.90;;;;;;5002826;28;20042;-70